sensor_id;sensor_type;location;lat;lon;timestamp;pressure;altitude;pressure_sealevel;temperature;humidity
46722;BME280;32455;43.430;23.136;2023-04-01T00:01:51;97116.00;;;14.17;52.57
46722;BME280;32455;43.430;23.136;2023-04-01T00:04:36;97129.50;;;14.33;51.34
46722;BME280;32455;43.430;23.136;2023-04-01T00:07:22;97127.09;;;14.21;52.20
46722;BME280;32455;43.430;23.136;2023-04-01T00:10:09;97127.63;;;14.43;51.34
46722;BME280;32455;43.430;23.136;2023-04-01T00:12:55;97108.16;;;14.21;50.80
46722;BME280;32455;43.430;23.136;2023-04-01T00:15:41;97124.38;;;14.41;50.62
46722;BME280;32455;43.430;23.136;2023-04-01T00:18:27;97126.00;;;14.32;51.42
46722;BME280;32455;43.430;23.136;2023-04-01T00:21:13;97117.09;;;14.26;50.22
46722;BME280;32455;43.430;23.136;2023-04-01T00:23:58;97107.66;;;14.14;52.45
46722;BME280;32455;43.430;23.136;2023-04-01T00:26:44;97096.31;;;13.96;52.51
46722;BME280;32455;43.430;23.136;2023-04-01T00:29:30;97093.06;;;14.10;52.05
46722;BME280;32455;43.430;23.136;2023-04-01T00:32:15;97082.00;;;13.91;51.91
46722;BME280;32455;43.430;23.136;2023-04-01T00:35:00;97094.13;;;14.09;52.17
46722;BME280;32455;43.430;23.136;2023-04-01T00:37:46;97082.00;;;13.96;52.35
46722;BME280;32455;43.430;23.136;2023-04-01T00:40:35;97081.44;;;14.04;50.36
46722;BME280;32455;43.430;23.136;2023-04-01T00:43:21;97062.28;;;14.11;50.73
46722;BME280;32455;43.430;23.136;2023-04-01T00:46:07;97048.75;;;14.16;49.59
46722;BME280;32455;43.430;23.136;2023-04-01T00:48:54;97066.03;;;14.25;50.50
46722;BME280;32455;43.430;23.136;2023-04-01T00:51:41;97067.34;;;14.53;48.82
46722;BME280;32455;43.430;23.136;2023-04-01T00:54:28;97058.69;;;14.41;49.31
46722;BME280;32455;43.430;23.136;2023-04-01T00:57:25;97063.56;;;14.34;49.68
46722;BME280;32455;43.430;23.136;2023-04-01T01:00:14;97056.28;;;14.29;49.91
46722;BME280;32455;43.430;23.136;2023-04-01T01:03:00;97037.16;;;14.10;49.46
46722;BME280;32455;43.430;23.136;2023-04-01T01:09:32;97026.56;;;14.39;47.84
46722;BME280;32455;43.430;23.136;2023-04-01T01:12:11;97042.72;;;14.60;47.47
46722;BME280;32455;43.430;23.136;2023-04-01T01:18:32;97034.84;;;14.68;46.61
46722;BME280;32455;43.430;23.136;2023-04-01T01:27:20;97024.28;;;14.72;46.50
46722;BME280;32455;43.430;23.136;2023-04-01T01:30:31;97022.84;;;14.95;45.85
46722;BME280;32455;43.430;23.136;2023-04-01T01:34:04;97024.03;;;14.73;47.15
46722;BME280;32455;43.430;23.136;2023-04-01T01:37:01;97024.63;;;14.50;47.73
46722;BME280;32455;43.430;23.136;2023-04-01T01:39:54;97021.34;;;14.63;47.20
46722;BME280;32455;43.430;23.136;2023-04-01T01:42:45;97005.22;;;14.33;48.39
46722;BME280;32455;43.430;23.136;2023-04-01T01:45:34;97004.97;;;14.24;49.49
46722;BME280;32455;43.430;23.136;2023-04-01T01:48:21;97000.06;;;14.36;48.77
46722;BME280;32455;43.430;23.136;2023-04-01T01:51:08;97003.06;;;14.29;49.62
46722;BME280;32455;43.430;23.136;2023-04-01T01:53:54;96998.47;;;14.25;48.29
46722;BME280;32455;43.430;23.136;2023-04-01T01:56:39;96996.06;;;14.23;48.79
46722;BME280;32455;43.430;23.136;2023-04-01T01:59:27;96974.72;;;14.17;48.10
46722;BME280;32455;43.430;23.136;2023-04-01T02:02:13;97004.44;;;14.17;49.61
46722;BME280;32455;43.430;23.136;2023-04-01T02:04:59;96993.16;;;13.89;52.29
46722;BME280;32455;43.430;23.136;2023-04-01T02:07:49;97002.38;;;13.68;54.91
46722;BME280;32455;43.430;23.136;2023-04-01T02:10:41;96945.94;;;12.95;58.32
46722;BME280;32455;43.430;23.136;2023-04-01T02:13:35;96972.81;;;12.64;58.22
46722;BME280;32455;43.430;23.136;2023-04-01T02:16:28;96985.84;;;12.98;59.30
46722;BME280;32455;43.430;23.136;2023-04-01T02:19:16;96992.84;;;12.94;59.88
46722;BME280;32455;43.430;23.136;2023-04-01T02:22:11;96992.56;;;12.95;58.48
46722;BME280;32455;43.430;23.136;2023-04-01T02:25:00;96989.88;;;13.06;56.21
46722;BME280;32455;43.430;23.136;2023-04-01T02:27:46;96988.03;;;13.88;50.39
46722;BME280;32455;43.430;23.136;2023-04-01T02:30:33;96999.09;;;13.96;49.07
46722;BME280;32455;43.430;23.136;2023-04-01T02:33:20;96994.38;;;14.38;47.57
46722;BME280;32455;43.430;23.136;2023-04-01T02:36:10;96994.72;;;14.16;50.23
46722;BME280;32455;43.430;23.136;2023-04-01T02:38:58;97000.31;;;14.45;47.29
46722;BME280;32455;43.430;23.136;2023-04-01T02:41:46;96992.53;;;14.28;47.72
46722;BME280;32455;43.430;23.136;2023-04-01T02:44:32;96987.69;;;14.20;48.75
46722;BME280;32455;43.430;23.136;2023-04-01T02:47:17;96980.69;;;14.14;47.83
46722;BME280;32455;43.430;23.136;2023-04-01T02:50:02;96992.47;;;14.38;45.81
46722;BME280;32455;43.430;23.136;2023-04-01T02:52:48;96974.94;;;14.36;48.22
46722;BME280;32455;43.430;23.136;2023-04-01T02:55:34;96972.53;;;14.24;47.88
46722;BME280;32455;43.430;23.136;2023-04-01T02:58:19;96972.25;;;14.31;47.71
46722;BME280;32455;43.430;23.136;2023-04-01T03:01:05;96985.28;;;14.13;50.82
46722;BME280;32455;43.430;23.136;2023-04-01T03:03:50;96987.16;;;14.13;49.28
46722;BME280;32455;43.430;23.136;2023-04-01T03:06:36;96986.38;;;14.07;48.41
46722;BME280;32455;43.430;23.136;2023-04-01T03:09:22;96990.94;;;14.22;49.31
46722;BME280;32455;43.430;23.136;2023-04-01T03:12:07;96979.91;;;14.03;50.57
46722;BME280;32455;43.430;23.136;2023-04-01T03:14:53;96978.56;;;13.90;51.44
46722;BME280;32455;43.430;23.136;2023-04-01T03:17:39;96978.88;;;13.68;52.51
46722;BME280;32455;43.430;23.136;2023-04-01T03:20:24;96978.31;;;13.87;52.11
46722;BME280;32455;43.430;23.136;2023-04-01T03:23:09;96978.84;;;13.94;52.26
46722;BME280;32455;43.430;23.136;2023-04-01T03:25:55;96983.69;;;13.97;53.19
46722;BME280;32455;43.430;23.136;2023-04-01T03:28:40;96986.97;;;13.73;57.88
46722;BME280;32455;43.430;23.136;2023-04-01T03:31:25;96991.53;;;13.83;56.05
46722;BME280;32455;43.430;23.136;2023-04-01T03:34:11;96942.44;;;13.40;57.33
46722;BME280;32455;43.430;23.136;2023-04-01T03:36:56;96994.28;;;13.63;58.85
46722;BME280;32455;43.430;23.136;2023-04-01T03:39:42;96968.88;;;13.08;64.64
46722;BME280;32455;43.430;23.136;2023-04-01T03:42:27;96983.47;;;13.68;56.05
46722;BME280;32455;43.430;23.136;2023-04-01T03:45:13;96994.53;;;13.82;56.73
46722;BME280;32455;43.430;23.136;2023-04-01T03:47:58;96984.28;;;13.63;59.42
46722;BME280;32455;43.430;23.136;2023-04-01T03:50:44;96983.22;;;13.59;59.56
46722;BME280;32455;43.430;23.136;2023-04-01T03:53:30;96976.75;;;13.50;61.54
46722;BME280;32455;43.430;23.136;2023-04-01T03:56:15;96978.63;;;13.24;62.82
46722;BME280;32455;43.430;23.136;2023-04-01T03:59:05;96990.22;;;13.35;64.97
46722;BME280;32455;43.430;23.136;2023-04-01T04:01:52;96941.28;;;12.70;71.07
46722;BME280;32455;43.430;23.136;2023-04-01T04:04:37;96983.00;;;12.47;75.69
46722;BME280;32455;43.430;23.136;2023-04-01T04:07:22;96965.69;;;12.33;76.74
46722;BME280;32455;43.430;23.136;2023-04-01T04:10:09;96976.41;;;12.12;84.27
46722;BME280;32455;43.430;23.136;2023-04-01T04:12:54;96964.47;;;12.03;84.46
46722;BME280;32455;43.430;23.136;2023-04-01T04:15:38;96935.78;;;11.76;89.68
46722;BME280;32455;43.430;23.136;2023-04-01T04:18:22;96907.53;;;11.32;94.83
46722;BME280;32455;43.430;23.136;2023-04-01T04:21:12;96940.03;;;11.67;97.47
46722;BME280;32455;43.430;23.136;2023-04-01T04:24:00;96947.88;;;11.37;100.00
46722;BME280;32455;43.430;23.136;2023-04-01T04:26:45;96932.88;;;11.09;100.00
46722;BME280;32455;43.430;23.136;2023-04-01T04:29:31;96930.44;;;11.07;100.00
46722;BME280;32455;43.430;23.136;2023-04-01T04:32:16;96921.38;;;10.86;100.00
46722;BME280;32455;43.430;23.136;2023-04-01T04:35:02;96915.16;;;10.81;100.00
46722;BME280;32455;43.430;23.136;2023-04-01T04:37:47;96914.00;;;11.03;100.00
46722;BME280;32455;43.430;23.136;2023-04-01T04:40:35;96912.53;;;10.86;100.00
46722;BME280;32455;43.430;23.136;2023-04-01T04:43:20;96922.97;;;11.14;100.00
46722;BME280;32455;43.430;23.136;2023-04-01T04:46:10;96911.91;;;11.06;100.00
46722;BME280;32455;43.430;23.136;2023-04-01T04:48:56;96903.16;;;11.25;100.00
46722;BME280;32455;43.430;23.136;2023-04-01T04:51:42;96894.13;;;11.42;100.00
46722;BME280;32455;43.430;23.136;2023-04-01T04:54:27;96861.34;;;11.45;100.00
46722;BME280;32455;43.430;23.136;2023-04-01T04:57:13;96888.53;;;11.48;98.07
46722;BME280;32455;43.430;23.136;2023-04-01T04:59:59;96881.25;;;11.91;94.02
46722;BME280;32455;43.430;23.136;2023-04-01T05:02:44;96878.16;;;12.25;83.47
46722;BME280;32455;43.430;23.136;2023-04-01T05:05:30;96887.63;;;12.53;83.07
46722;BME280;32455;43.430;23.136;2023-04-01T05:08:15;96872.84;;;12.56;81.31
46722;BME280;32455;43.430;23.136;2023-04-01T05:11:02;96877.16;;;12.97;76.65
46722;BME280;32455;43.430;23.136;2023-04-01T05:13:47;96875.28;;;13.03;77.63
46722;BME280;32455;43.430;23.136;2023-04-01T05:16:35;96877.72;;;12.89;80.59
46722;BME280;32455;43.430;23.136;2023-04-01T05:19:20;96880.41;;;12.69;82.23
46722;BME280;32455;43.430;23.136;2023-04-01T05:22:06;96864.50;;;12.77;77.90
46722;BME280;32455;43.430;23.136;2023-04-01T05:24:51;96850.47;;;12.70;78.21
46722;BME280;32455;43.430;23.136;2023-04-01T05:27:37;96841.28;;;12.66;77.44
46722;BME280;32455;43.430;23.136;2023-04-01T05:30:22;96843.22;;;12.81;76.91
46722;BME280;32455;43.430;23.136;2023-04-01T05:33:09;96876.09;;;12.98;77.41
46722;BME280;32455;43.430;23.136;2023-04-01T05:35:55;96872.06;;;13.06;77.12
46722;BME280;32455;43.430;23.136;2023-04-01T05:38:41;96867.22;;;12.98;76.43
46722;BME280;32455;43.430;23.136;2023-04-01T05:41:28;96859.63;;;13.05;77.47
46722;BME280;32455;43.430;23.136;2023-04-01T05:44:13;96818.66;;;12.83;74.89
46722;BME280;32455;43.430;23.136;2023-04-01T05:46:59;96859.13;;;13.23;73.65
46722;BME280;32455;43.430;23.136;2023-04-01T05:49:44;96836.16;;;13.06;72.52
46722;BME280;32455;43.430;23.136;2023-04-01T05:52:30;96870.44;;;13.31;70.96
46722;BME280;32455;43.430;23.136;2023-04-01T05:55:15;96858.03;;;13.19;72.28
46722;BME280;32455;43.430;23.136;2023-04-01T05:58:00;96869.63;;;13.25;71.57
46722;BME280;32455;43.430;23.136;2023-04-01T06:00:46;96861.53;;;13.04;72.27
46722;BME280;32455;43.430;23.136;2023-04-01T06:03:31;96862.88;;;12.87;73.34
46722;BME280;32455;43.430;23.136;2023-04-01T06:06:23;96868.78;;;13.14;71.98
46722;BME280;32455;43.430;23.136;2023-04-01T06:09:16;96853.47;;;12.89;74.01
46722;BME280;32455;43.430;23.136;2023-04-01T06:12:16;96855.88;;;13.16;71.66
46722;BME280;32455;43.430;23.136;2023-04-01T06:18:18;96858.00;;;13.09;70.99
46722;BME280;32455;43.430;23.136;2023-04-01T06:24:43;96846.97;;;13.00;69.78
46722;BME280;32455;43.430;23.136;2023-04-01T06:30:43;96853.97;;;13.22;70.24
46722;BME280;32455;43.430;23.136;2023-04-01T06:33:56;96836.19;;;13.16;68.72
46722;BME280;32455;43.430;23.136;2023-04-01T06:52:17;96865.34;;;13.24;71.16
46722;BME280;32455;43.430;23.136;2023-04-01T06:55:29;96835.06;;;13.22;72.16
46722;BME280;32455;43.430;23.136;2023-04-01T06:58:23;96854.25;;;13.25;71.53
46722;BME280;32455;43.430;23.136;2023-04-01T07:01:26;96864.53;;;13.23;72.67
46722;BME280;32455;43.430;23.136;2023-04-01T07:04:31;96861.28;;;13.06;75.01
46722;BME280;32455;43.430;23.136;2023-04-01T07:07:50;96875.28;;;13.13;74.84
46722;BME280;32455;43.430;23.136;2023-04-01T07:10:50;96897.13;;;13.42;69.94
46722;BME280;32455;43.430;23.136;2023-04-01T07:14:00;96897.16;;;13.37;72.12
46722;BME280;32455;43.430;23.136;2023-04-01T07:16:59;96897.66;;;13.39;73.56
46722;BME280;32455;43.430;23.136;2023-04-01T07:19:52;96897.41;;;13.31;75.94
46722;BME280;32455;43.430;23.136;2023-04-01T07:22:44;96893.09;;;13.40;75.84
46722;BME280;32455;43.430;23.136;2023-04-01T07:25:38;96895.22;;;13.58;76.46
46722;BME280;32455;43.430;23.136;2023-04-01T07:28:23;96900.06;;;13.61;79.81
46722;BME280;32455;43.430;23.136;2023-04-01T07:31:22;96908.91;;;13.87;80.23
46722;BME280;32455;43.430;23.136;2023-04-01T07:37:17;96905.69;;;13.85;73.83
46722;BME280;32455;43.430;23.136;2023-04-01T07:47:41;96928.69;;;13.62;77.18
46722;BME280;32455;43.430;23.136;2023-04-01T07:56:57;96908.72;;;13.48;80.84
46722;BME280;32455;43.430;23.136;2023-04-01T08:00:11;96901.94;;;13.71;80.19
46722;BME280;32455;43.430;23.136;2023-04-01T08:18:22;96877.66;;;13.71;82.66
46722;BME280;32455;43.430;23.136;2023-04-01T08:21:38;96878.00;;;13.28;84.60
46722;BME280;32455;43.430;23.136;2023-04-01T08:24:41;96885.25;;;13.59;84.17
46722;BME280;32455;43.430;23.136;2023-04-01T08:27:46;96874.38;;;13.74;83.20
46722;BME280;32455;43.430;23.136;2023-04-01T08:30:43;96878.75;;;13.60;85.33
46722;BME280;32455;43.430;23.136;2023-04-01T08:33:32;96885.50;;;13.67;84.77
46722;BME280;32455;43.430;23.136;2023-04-01T08:36:26;96862.53;;;13.75;85.49
46722;BME280;32455;43.430;23.136;2023-04-01T08:39:28;96874.56;;;14.03;85.50
46722;BME280;32455;43.430;23.136;2023-04-01T08:48:45;96842.75;;;13.90;85.13
46722;BME280;32455;43.430;23.136;2023-04-01T09:00:43;96871.75;;;13.43;88.06
46722;BME280;32455;43.430;23.136;2023-04-01T09:04:04;96875.81;;;13.46;87.63
46722;BME280;32455;43.430;23.136;2023-04-01T09:14:03;96848.59;;;13.32;90.60
46722;BME280;32455;43.430;23.136;2023-04-01T09:17:05;96824.78;;;13.55;91.03
46722;BME280;32455;43.430;23.136;2023-04-01T09:26:35;96824.16;;;13.78;88.71
46722;BME280;32455;43.430;23.136;2023-04-01T09:29:53;96813.00;;;13.95;87.82
46722;BME280;32455;43.430;23.136;2023-04-01T09:36:03;96801.13;;;13.96;86.67
46722;BME280;32455;43.430;23.136;2023-04-01T09:38:57;96792.09;;;13.66;88.83
46722;BME280;32455;43.430;23.136;2023-04-01T09:41:52;96790.34;;;13.91;90.24
46722;BME280;32455;43.430;23.136;2023-04-01T09:52:05;96781.38;;;14.06;86.64
46722;BME280;32455;43.430;23.136;2023-04-01T09:58:22;96789.16;;;13.58;92.33
46722;BME280;32455;43.430;23.136;2023-04-01T10:07:42;96789.91;;;13.73;92.46
46722;BME280;32455;43.430;23.136;2023-04-01T10:20:13;96796.91;;;13.74;91.01
46722;BME280;32455;43.430;23.136;2023-04-01T10:23:27;96779.75;;;13.50;93.00
46722;BME280;32455;43.430;23.136;2023-04-01T10:49:08;96772.72;;;13.54;100.00
46722;BME280;32455;43.430;23.136;2023-04-01T11:17:29;96793.06;;;12.70;100.00
46722;BME280;32455;43.430;23.136;2023-04-01T11:32:59;96790.09;;;12.71;100.00
46722;BME280;32455;43.430;23.136;2023-04-01T11:36:20;96790.63;;;12.43;100.00
46722;BME280;32455;43.430;23.136;2023-04-01T11:39:25;96810.53;;;12.26;100.00
46722;BME280;32455;43.430;23.136;2023-04-01T11:42:43;96824.81;;;12.32;100.00
46722;BME280;32455;43.430;23.136;2023-04-01T11:52:04;96823.19;;;11.53;100.00
46722;BME280;32455;43.430;23.136;2023-04-01T12:10:06;96822.53;;;11.83;100.00
46722;BME280;32455;43.430;23.136;2023-04-01T12:12:59;96738.63;;;12.17;100.00
46722;BME280;32455;43.430;23.136;2023-04-01T12:16:13;96727.56;;;12.03;100.00
46722;BME280;32455;43.430;23.136;2023-04-01T12:19:17;96714.66;;;12.05;100.00
46722;BME280;32455;43.430;23.136;2023-04-01T12:22:45;96718.94;;;12.11;100.00
46722;BME280;32455;43.430;23.136;2023-04-01T12:32:27;96709.28;;;12.00;100.00
46722;BME280;32455;43.430;23.136;2023-04-01T12:35:23;96690.88;;;11.66;100.00
46722;BME280;32455;43.430;23.136;2023-04-01T12:38:36;96703.25;;;11.72;100.00
46722;BME280;32455;43.430;23.136;2023-04-01T12:45:12;96683.97;;;12.32;100.00
46722;BME280;32455;43.430;23.136;2023-04-01T12:48:26;96677.50;;;12.48;100.00
46722;BME280;32455;43.430;23.136;2023-04-01T12:57:51;96646.19;;;12.67;100.00
46722;BME280;32455;43.430;23.136;2023-04-01T13:13:46;96628.47;;;14.10;100.00
46722;BME280;32455;43.430;23.136;2023-04-01T13:25:35;96615.31;;;15.09;98.75
46722;BME280;32455;43.430;23.136;2023-04-01T13:28:47;96603.38;;;15.10;100.00
46722;BME280;32455;43.430;23.136;2023-04-01T13:31:38;96596.69;;;15.26;100.00
46722;BME280;32455;43.430;23.136;2023-04-01T13:34:32;96590.66;;;15.11;98.19
46722;BME280;32455;43.430;23.136;2023-04-01T13:52:31;96553.03;;;14.18;89.14
46722;BME280;32455;43.430;23.136;2023-04-01T13:56:29;96577.88;;;14.49;90.39
46722;BME280;32455;43.430;23.136;2023-04-01T14:11:50;96560.50;;;14.56;89.17
46722;BME280;32455;43.430;23.136;2023-04-01T14:21:33;96567.34;;;14.43;86.53
46722;BME280;32455;43.430;23.136;2023-04-01T14:24:42;96565.34;;;14.83;85.30
46722;BME280;32455;43.430;23.136;2023-04-01T14:33:43;96559.06;;;14.63;84.09
46722;BME280;32455;43.430;23.136;2023-04-01T14:49:36;96698.56;;;14.25;86.28
46722;BME280;32455;43.430;23.136;2023-04-01T14:52:33;96692.75;;;14.08;75.89
46722;BME280;32455;43.430;23.136;2023-04-01T14:58:47;96705.09;;;13.25;70.89
46722;BME280;32455;43.430;23.136;2023-04-01T15:01:50;96703.81;;;13.02;70.46
46722;BME280;32455;43.430;23.136;2023-04-01T15:04:56;96734.28;;;12.92;72.85
46722;BME280;32455;43.430;23.136;2023-04-01T15:10:53;96728.94;;;12.62;73.56
46722;BME280;32455;43.430;23.136;2023-04-01T15:17:16;96722.75;;;12.56;74.40
46722;BME280;32455;43.430;23.136;2023-04-01T15:20:25;96720.59;;;12.48;74.72
46722;BME280;32455;43.430;23.136;2023-04-01T15:24:05;96715.19;;;12.33;77.08
46722;BME280;32455;43.430;23.136;2023-04-01T15:27:03;96727.84;;;12.37;77.11
46722;BME280;32455;43.430;23.136;2023-04-01T15:30:24;96743.75;;;12.23;78.77
46722;BME280;32455;43.430;23.136;2023-04-01T15:36:46;96720.31;;;12.03;83.17
46722;BME280;32455;43.430;23.136;2023-04-01T15:46:46;96743.31;;;11.64;90.19
46722;BME280;32455;43.430;23.136;2023-04-01T15:49:39;96762.34;;;11.47;89.59
46722;BME280;32455;43.430;23.136;2023-04-01T15:52:42;96751.59;;;11.42;90.99
46722;BME280;32455;43.430;23.136;2023-04-01T15:55:50;96775.00;;;11.51;91.12
46722;BME280;32455;43.430;23.136;2023-04-01T16:04:50;96797.81;;;11.39;96.77
46722;BME280;32455;43.430;23.136;2023-04-01T16:13:48;96815.75;;;11.18;100.00
46722;BME280;32455;43.430;23.136;2023-04-01T16:22:45;96839.03;;;11.07;96.29
46722;BME280;32455;43.430;23.136;2023-04-01T16:25:39;96843.28;;;11.35;93.90
46722;BME280;32455;43.430;23.136;2023-04-01T16:28:55;96861.16;;;11.62;92.07
46722;BME280;32455;43.430;23.136;2023-04-01T16:31:53;96881.84;;;11.56;92.09
46722;BME280;32455;43.430;23.136;2023-04-01T16:34:46;96888.94;;;11.30;90.94
46722;BME280;32455;43.430;23.136;2023-04-01T16:37:47;96886.72;;;11.22;88.52
46722;BME280;32455;43.430;23.136;2023-04-01T16:43:57;96908.59;;;10.98;82.14
46722;BME280;32455;43.430;23.136;2023-04-01T16:46:53;96907.91;;;11.13;80.42
46722;BME280;32455;43.430;23.136;2023-04-01T16:50:05;96906.34;;;10.85;79.61
46722;BME280;32455;43.430;23.136;2023-04-01T16:53:41;96909.19;;;10.73;78.19
46722;BME280;32455;43.430;23.136;2023-04-01T16:56:24;96906.50;;;10.73;76.83
46722;BME280;32455;43.430;23.136;2023-04-01T16:59:28;96899.34;;;10.57;77.09
46722;BME280;32455;43.430;23.136;2023-04-01T17:02:17;96900.72;;;10.33;77.19
46722;BME280;32455;43.430;23.136;2023-04-01T17:05:09;96897.28;;;10.37;77.51
46722;BME280;32455;43.430;23.136;2023-04-01T17:11:31;96910.22;;;10.23;78.88
46722;BME280;32455;43.430;23.136;2023-04-01T17:14:41;96883.41;;;10.01;79.22
46722;BME280;32455;43.430;23.136;2023-04-01T17:17:36;96918.09;;;10.25;79.16
46722;BME280;32455;43.430;23.136;2023-04-01T17:20:31;96919.78;;;10.14;79.70
46722;BME280;32455;43.430;23.136;2023-04-01T17:23:34;96920.88;;;10.13;80.36
46722;BME280;32455;43.430;23.136;2023-04-01T17:26:36;96930.53;;;9.92;80.09
46722;BME280;32455;43.430;23.136;2023-04-01T17:29:39;96907.00;;;9.77;80.15
46722;BME280;32455;43.430;23.136;2023-04-01T17:35:55;96905.94;;;9.78;80.03
46722;BME280;32455;43.430;23.136;2023-04-01T17:42:14;96918.66;;;9.66;81.22
46722;BME280;32455;43.430;23.136;2023-04-01T17:45:28;96938.50;;;9.65;80.83
46722;BME280;32455;43.430;23.136;2023-04-01T17:48:27;96926.63;;;9.61;81.25
46722;BME280;32455;43.430;23.136;2023-04-01T17:57:41;96965.25;;;9.43;82.08
46722;BME280;32455;43.430;23.136;2023-04-01T18:03:55;96962.53;;;9.77;80.12
46722;BME280;32455;43.430;23.136;2023-04-01T18:07:03;96975.38;;;9.58;80.34
46722;BME280;32455;43.430;23.136;2023-04-01T18:10:09;96974.50;;;9.52;80.42
46722;BME280;32455;43.430;23.136;2023-04-01T18:13:15;96977.59;;;9.44;81.90
46722;BME280;32455;43.430;23.136;2023-04-01T18:19:17;96986.91;;;9.59;81.04
46722;BME280;32455;43.430;23.136;2023-04-01T18:22:29;96970.03;;;9.58;80.89
46722;BME280;32455;43.430;23.136;2023-04-01T18:25:35;97002.94;;;9.70;80.92
46722;BME280;32455;43.430;23.136;2023-04-01T18:31:55;96991.59;;;9.30;81.33
46722;BME280;32455;43.430;23.136;2023-04-01T18:35:25;97018.47;;;9.35;82.75
46722;BME280;32455;43.430;23.136;2023-04-01T18:38:16;97002.72;;;9.38;81.96
46722;BME280;32455;43.430;23.136;2023-04-01T18:41:18;96993.13;;;9.25;81.34
46722;BME280;32455;43.430;23.136;2023-04-01T18:53:50;96995.19;;;9.07;81.43
46722;BME280;32455;43.430;23.136;2023-04-01T18:56:43;97025.28;;;9.25;81.71
46722;BME280;32455;43.430;23.136;2023-04-01T19:00:04;97038.09;;;9.23;81.31
46722;BME280;32455;43.430;23.136;2023-04-01T19:03:02;97031.13;;;9.22;82.38
46722;BME280;32455;43.430;23.136;2023-04-01T19:05:53;97019.72;;;9.15;82.04
46722;BME280;32455;43.430;23.136;2023-04-01T19:08:41;97015.53;;;9.19;81.11
46722;BME280;32455;43.430;23.136;2023-04-01T19:14:54;97014.47;;;9.20;79.80
46722;BME280;32455;43.430;23.136;2023-04-01T19:20:41;97043.72;;;9.22;79.95
46722;BME280;32455;43.430;23.136;2023-04-01T19:26:48;97046.69;;;9.09;79.06
46722;BME280;32455;43.430;23.136;2023-04-01T19:35:54;97081.41;;;9.32;79.28
46722;BME280;32455;43.430;23.136;2023-04-01T19:39:13;97056.91;;;9.12;79.14
46722;BME280;32455;43.430;23.136;2023-04-01T19:51:19;97083.91;;;9.22;78.61
46722;BME280;32455;43.430;23.136;2023-04-01T20:00:07;97077.97;;;9.20;79.41
46722;BME280;32455;43.430;23.136;2023-04-01T20:06:09;97097.59;;;9.37;79.60
46722;BME280;32455;43.430;23.136;2023-04-01T20:12:40;97100.44;;;9.31;78.68
46722;BME280;32455;43.430;23.136;2023-04-01T20:21:42;97091.28;;;9.15;79.94
46722;BME280;32455;43.430;23.136;2023-04-01T20:24:36;97106.94;;;9.35;79.97
46722;BME280;32455;43.430;23.136;2023-04-01T20:27:32;97088.13;;;9.18;80.30
46722;BME280;32455;43.430;23.136;2023-04-01T20:30:34;97079.84;;;9.19;81.24
46722;BME280;32455;43.430;23.136;2023-04-01T20:44:08;97115.16;;;9.45;78.48
46722;BME280;32455;43.430;23.136;2023-04-01T20:52:25;97129.75;;;9.37;78.61
46722;BME280;32455;43.430;23.136;2023-04-01T21:01:41;97129.97;;;9.19;80.64
46722;BME280;32455;43.430;23.136;2023-04-01T21:10:56;97132.81;;;9.29;80.24
46722;BME280;32455;43.430;23.136;2023-04-01T21:23:11;97148.47;;;9.20;79.36
46722;BME280;32455;43.430;23.136;2023-04-01T21:35:59;97161.34;;;9.07;79.94
46722;BME280;32455;43.430;23.136;2023-04-01T21:39:05;97142.56;;;8.78;81.49
46722;BME280;32455;43.430;23.136;2023-04-01T22:00:19;97151.28;;;9.25;77.19
46722;BME280;32455;43.430;23.136;2023-04-01T22:03:28;97155.97;;;9.07;78.29
46722;BME280;32455;43.430;23.136;2023-04-01T22:07:25;97150.97;;;9.10;78.65
46722;BME280;32455;43.430;23.136;2023-04-01T22:10:29;97139.38;;;8.93;78.36
46722;BME280;32455;43.430;23.136;2023-04-01T22:13:13;97151.06;;;9.15;77.37
46722;BME280;32455;43.430;23.136;2023-04-01T22:19:26;97138.41;;;8.99;76.77
46722;BME280;32455;43.430;23.136;2023-04-01T22:25:14;97127.22;;;9.02;76.49
46722;BME280;32455;43.430;23.136;2023-04-01T22:28:21;97129.81;;;8.97;76.74
46722;BME280;32455;43.430;23.136;2023-04-01T22:31:13;97117.94;;;8.93;76.67
46722;BME280;32455;43.430;23.136;2023-04-01T22:34:43;97128.41;;;8.94;76.09
46722;BME280;32455;43.430;23.136;2023-04-01T22:37:55;97135.50;;;9.00;75.94
46722;BME280;32455;43.430;23.136;2023-04-01T22:43:43;97138.56;;;8.92;76.12
46722;BME280;32455;43.430;23.136;2023-04-01T22:47:12;97142.41;;;8.85;77.48
46722;BME280;32455;43.430;23.136;2023-04-01T22:53:00;97125.34;;;8.15;80.02
46722;BME280;32455;43.430;23.136;2023-04-01T22:55:50;97137.09;;;8.02;82.46
46722;BME280;32455;43.430;23.136;2023-04-01T22:58:42;97144.53;;;8.12;81.32
46722;BME280;32455;43.430;23.136;2023-04-01T23:01:31;97134.53;;;7.96;83.54
46722;BME280;32455;43.430;23.136;2023-04-01T23:04:23;97095.34;;;7.90;80.93
46722;BME280;32455;43.430;23.136;2023-04-01T23:07:54;97144.69;;;8.41;79.34
46722;BME280;32455;43.430;23.136;2023-04-01T23:10:44;97139.13;;;8.94;73.61
46722;BME280;32455;43.430;23.136;2023-04-01T23:13:41;97124.38;;;8.80;74.36
46722;BME280;32455;43.430;23.136;2023-04-01T23:16:37;97122.16;;;9.17;72.51
46722;BME280;32455;43.430;23.136;2023-04-01T23:22:54;97117.28;;;9.14;71.50
46722;BME280;32455;43.430;23.136;2023-04-01T23:34:27;97166.97;;;9.34;72.18
46722;BME280;32455;43.430;23.136;2023-04-01T23:37:14;97151.41;;;9.19;71.67
46722;BME280;32455;43.430;23.136;2023-04-01T23:40:02;97169.00;;;9.15;72.46
46722;BME280;32455;43.430;23.136;2023-04-01T23:42:49;97168.09;;;9.09;72.94
46722;BME280;32455;43.430;23.136;2023-04-01T23:45:35;97157.31;;;8.92;73.18
46722;BME280;32455;43.430;23.136;2023-04-01T23:48:25;97162.31;;;8.89;73.75
46722;BME280;32455;43.430;23.136;2023-04-01T23:56:55;97135.44;;;8.84;73.55